createdAt,value
2023-11-08T00:02:14.494Z,8.30
2023-11-08T00:04:42.397Z,8.30
2023-11-08T00:07:10.611Z,8.30
2023-11-08T00:09:38.971Z,8.30
2023-11-08T00:12:07.770Z,8.30
2023-11-08T00:14:35.933Z,8.30
2023-11-08T00:17:04.650Z,8.30
2023-11-08T00:19:34.083Z,8.40
2023-11-08T00:22:03.012Z,8.40
2023-11-08T00:24:30.994Z,8.30
2023-11-08T00:26:59.173Z,8.40
2023-11-08T00:29:27.169Z,8.30
2023-11-08T00:31:55.107Z,8.40
2023-11-08T00:34:23.389Z,8.40
2023-11-08T00:36:52.759Z,8.40
2023-11-08T00:39:21.674Z,8.40
2023-11-08T00:41:50.075Z,8.40
2023-11-08T00:44:18.357Z,8.40
2023-11-08T00:46:46.403Z,8.40
2023-11-08T00:49:14.885Z,8.40
2023-11-08T00:51:45.532Z,8.40
2023-11-08T00:54:15.682Z,8.40
2023-11-08T00:56:43.806Z,8.50
2023-11-08T00:59:11.732Z,8.50
2023-11-08T01:01:39.646Z,8.50
2023-11-08T01:04:12.298Z,8.50
2023-11-08T01:06:40.874Z,8.50
2023-11-08T01:09:10.510Z,8.40
2023-11-08T01:11:42.785Z,8.50
2023-11-08T01:14:11.898Z,8.50
2023-11-08T01:16:40.539Z,8.50
2023-11-08T01:19:08.889Z,8.50
2023-11-08T01:21:37.227Z,8.50
2023-11-08T01:24:06.160Z,8.50
2023-11-08T01:26:34.377Z,8.50
2023-11-08T01:29:04.185Z,8.50
2023-11-08T01:31:32.515Z,8.50
2023-11-08T01:34:00.717Z,8.50
2023-11-08T01:36:30.739Z,8.50
2023-11-08T01:38:59.825Z,8.50
2023-11-08T01:41:28.133Z,8.50
2023-11-08T01:43:56.027Z,8.50
2023-11-08T01:46:27.544Z,8.50
2023-11-08T01:48:56.427Z,8.50
2023-11-08T01:51:26.175Z,8.50
2023-11-08T01:53:56.122Z,8.50
2023-11-08T01:56:24.916Z,8.50
2023-11-08T01:58:57.625Z,8.50
2023-11-08T02:01:27.794Z,8.50
2023-11-08T02:03:57.026Z,8.50
2023-11-08T02:06:25.247Z,8.50
2023-11-08T02:08:53.555Z,8.50
2023-11-08T02:11:21.861Z,8.50
2023-11-08T02:13:50.130Z,8.50
2023-11-08T02:16:18.149Z,8.50
2023-11-08T02:18:47.610Z,8.50
2023-11-08T02:21:15.736Z,8.50
2023-11-08T02:23:43.840Z,8.40
2023-11-08T02:26:13.396Z,8.40
2023-11-08T02:28:41.345Z,8.40
2023-11-08T02:31:09.310Z,8.40
2023-11-08T02:33:37.394Z,8.40
2023-11-08T02:36:06.707Z,8.40
2023-11-08T02:38:34.825Z,8.40
2023-11-08T02:41:02.770Z,8.40
2023-11-08T02:43:33.100Z,8.40
2023-11-08T02:46:01.582Z,8.40
2023-11-08T02:48:29.894Z,8.40
2023-11-08T02:50:58.821Z,8.40
2023-11-08T02:53:26.865Z,8.50
2023-11-08T02:55:54.817Z,8.50
2023-11-08T02:58:24.361Z,8.50
2023-11-08T03:00:55.863Z,8.50
2023-11-08T03:03:24.318Z,8.50
2023-11-08T03:05:52.406Z,8.50
2023-11-08T03:08:20.353Z,8.50
2023-11-08T03:10:48.401Z,8.50
2023-11-08T03:13:16.689Z,8.40
2023-11-08T03:15:44.841Z,8.50
2023-11-08T03:18:14.234Z,8.40
2023-11-08T03:20:43.118Z,8.40
2023-11-08T03:23:11.281Z,8.50
2023-11-08T03:25:39.342Z,8.50
2023-11-08T03:28:07.238Z,8.50
2023-11-08T03:30:37.494Z,8.50
2023-11-08T03:33:07.043Z,8.50
2023-11-08T03:35:36.644Z,8.60
2023-11-08T03:38:04.915Z,8.50
2023-11-08T03:40:32.923Z,8.60
2023-11-08T03:43:00.839Z,8.60
2023-11-08T03:45:29.180Z,8.60
2023-11-08T03:47:57.183Z,8.60
2023-11-08T03:50:25.531Z,8.60
2023-11-08T03:52:54.996Z,8.50
2023-11-08T03:55:23.162Z,8.50
2023-11-08T03:57:51.276Z,8.50
2023-11-08T04:00:19.701Z,8.50
2023-11-08T04:02:47.764Z,8.50
2023-11-08T04:05:16.014Z,8.50
2023-11-08T04:07:43.999Z,8.50
2023-11-08T04:10:15.372Z,8.50
2023-11-08T04:12:43.786Z,8.50
2023-11-08T04:15:12.381Z,8.50
2023-11-08T04:20:12.056Z,8.50
2023-11-08T04:22:42.506Z,8.50
2023-11-08T04:25:10.775Z,8.50
2023-11-08T04:27:40.439Z,8.50
2023-11-08T04:30:09.895Z,8.50
2023-11-08T04:32:38.614Z,8.50
2023-11-08T04:35:08.094Z,8.40
2023-11-08T04:37:38.447Z,8.40
2023-11-08T04:40:07.780Z,8.40
2023-11-08T04:42:36.486Z,8.40
2023-11-08T04:45:06.784Z,8.40
2023-11-08T04:47:34.731Z,8.40
2023-11-08T04:50:02.718Z,8.40
2023-11-08T04:52:31.991Z,8.40
2023-11-08T04:55:00.916Z,8.40
2023-11-08T04:57:29.001Z,8.40
2023-11-08T04:59:56.949Z,8.40
2023-11-08T05:02:26.775Z,8.40
2023-11-08T05:04:54.820Z,8.40
2023-11-08T05:07:24.083Z,8.40
2023-11-08T05:09:54.422Z,8.40
2023-11-08T05:12:22.591Z,8.50
2023-11-08T05:14:50.898Z,8.50
2023-11-08T05:17:18.951Z,8.40
2023-11-08T05:19:48.810Z,8.40
2023-11-08T05:22:16.767Z,8.40
2023-11-08T05:24:45.146Z,8.30
2023-11-08T05:27:13.489Z,8.30
2023-11-08T05:29:41.592Z,8.30
2023-11-08T05:32:10.512Z,8.30
2023-11-08T05:34:38.752Z,8.40
2023-11-08T05:37:08.871Z,8.40
2023-11-08T05:39:37.599Z,8.40
2023-11-08T05:42:06.255Z,8.30
2023-11-08T05:47:02.734Z,8.30
2023-11-08T05:49:31.376Z,8.30
2023-11-08T05:51:59.694Z,8.30
2023-11-08T05:54:29.254Z,8.20
2023-11-08T05:56:57.349Z,8.20
2023-11-08T05:59:25.372Z,8.20
2023-11-08T06:01:53.601Z,8.20
2023-11-08T06:04:22.000Z,8.10
2023-11-08T06:06:51.622Z,8.10
2023-11-08T06:09:19.994Z,8.10
2023-11-08T06:11:51.097Z,8.10
2023-11-08T06:14:19.092Z,8.10
2023-11-08T06:16:47.095Z,8.00
2023-11-08T06:19:15.457Z,8.00
2023-11-08T06:21:43.946Z,8.00
2023-11-08T06:24:12.107Z,8.00
2023-11-08T06:26:40.155Z,8.00
2023-11-08T06:29:09.889Z,8.00
2023-11-08T06:31:38.530Z,8.00
2023-11-08T06:34:08.360Z,8.00
2023-11-08T06:36:36.487Z,8.00
2023-11-08T06:39:06.032Z,8.00
2023-11-08T06:41:33.084Z,8.00
2023-11-08T06:46:31.008Z,8.00
2023-11-08T06:48:59.258Z,8.10
2023-11-08T06:51:27.394Z,8.20
2023-11-08T06:53:55.873Z,8.20
2023-11-08T06:56:23.909Z,8.20
2023-11-08T06:58:53.146Z,8.30
2023-11-08T07:01:22.026Z,8.30
2023-11-08T07:03:51.427Z,8.30
2023-11-08T07:06:20.503Z,8.20
2023-11-08T07:08:48.466Z,8.30
2023-11-08T07:11:16.947Z,8.30
2023-11-08T07:13:45.549Z,8.30
2023-11-08T07:16:13.549Z,8.30
2023-11-08T07:18:42.534Z,8.30
2023-11-08T07:21:18.770Z,8.20
2023-11-08T07:23:47.091Z,8.20
2023-11-08T07:26:17.212Z,8.20
2023-11-08T07:28:46.976Z,8.20
2023-11-08T07:31:15.862Z,8.20
2023-11-08T07:33:44.953Z,8.30
2023-11-08T07:36:15.116Z,8.40
2023-11-08T07:38:43.152Z,8.50
2023-11-08T07:41:11.144Z,8.60
2023-11-08T07:43:39.099Z,8.60
2023-11-08T07:46:09.348Z,8.60
2023-11-08T07:48:37.460Z,8.60
2023-11-08T07:51:09.232Z,8.60
2023-11-08T07:53:38.876Z,8.60
2023-11-08T07:56:08.942Z,8.70
2023-11-08T07:58:37.003Z,8.70
2023-11-08T08:01:05.711Z,8.80
2023-11-08T08:03:33.981Z,8.90
2023-11-08T08:06:03.157Z,9.00
2023-11-08T08:08:31.328Z,9.00
2023-11-08T08:11:00.645Z,9.10
2023-11-08T08:13:33.003Z,9.10
2023-11-08T08:16:01.776Z,9.10
2023-11-08T08:18:30.082Z,9.10
2023-11-08T08:20:58.417Z,9.20
2023-11-08T08:23:26.501Z,9.20
2023-11-08T08:25:55.240Z,9.30
2023-11-08T08:28:25.421Z,9.30
2023-11-08T08:30:54.167Z,9.40
2023-11-08T08:33:23.475Z,9.40
2023-11-08T08:38:20.958Z,9.50
2023-11-08T08:40:50.435Z,9.50
2023-11-08T08:43:21.092Z,9.60
2023-11-08T08:45:52.034Z,9.70
2023-11-08T08:48:20.381Z,9.60
2023-11-08T08:50:48.953Z,9.60
2023-11-08T08:53:17.030Z,9.60
2023-11-08T08:55:45.214Z,9.60
2023-11-08T08:58:13.173Z,9.60
2023-11-08T09:00:41.572Z,9.60
2023-11-08T09:03:11.082Z,9.60
2023-11-08T09:05:39.207Z,9.60
2023-11-08T09:08:07.672Z,9.60
2023-11-08T09:10:35.774Z,9.50
2023-11-08T09:13:03.989Z,9.50
2023-11-08T09:15:33.587Z,9.60
2023-11-08T09:18:01.837Z,9.60
2023-11-08T09:20:32.403Z,9.60
2023-11-08T09:23:02.234Z,9.60
2023-11-08T09:25:30.519Z,9.60
2023-11-08T09:27:58.961Z,9.60
2023-11-08T09:30:27.092Z,9.60
2023-11-08T09:32:56.108Z,9.60
2023-11-08T09:35:25.688Z,9.60
2023-11-08T09:37:56.204Z,9.60
2023-11-08T09:40:24.504Z,9.50
2023-11-08T09:42:54.696Z,9.50
2023-11-08T09:45:27.615Z,9.50
2023-11-08T09:47:56.183Z,9.60
2023-11-08T09:50:26.477Z,9.60
2023-11-08T09:52:55.964Z,9.60
2023-11-08T09:55:24.168Z,9.60
2023-11-08T09:57:52.569Z,9.60
2023-11-08T10:00:22.259Z,9.70
2023-11-08T10:02:54.866Z,9.70
2023-11-08T10:05:24.701Z,9.70
2023-11-08T10:07:53.106Z,9.70
2023-11-08T10:10:22.757Z,9.80
2023-11-08T10:13:06.975Z,10.10
2023-11-08T10:15:35.852Z,10.10
2023-11-08T10:19:32.415Z,10.20
2023-11-08T10:21:03.028Z,10.20
2023-11-08T10:23:33.288Z,10.20
2023-11-08T10:26:17.170Z,10.20
2023-11-08T10:29:01.718Z,10.20
2023-11-08T10:31:32.588Z,10.40
2023-11-08T10:36:32.495Z,10.80
2023-11-08T10:39:04.826Z,10.90
2023-11-08T10:41:34.728Z,11.00
2023-11-08T10:44:11.717Z,11.20
2023-11-08T10:46:41.375Z,11.20
2023-11-08T10:49:12.130Z,11.10
2023-11-08T10:51:43.258Z,11.10
2023-11-08T10:54:11.512Z,11.00
2023-11-08T10:56:46.770Z,10.90
2023-11-08T10:59:16.224Z,10.90
2023-11-08T11:01:44.789Z,11.00
2023-11-08T11:04:14.909Z,11.00
2023-11-08T11:06:43.696Z,10.90
2023-11-08T11:09:12.490Z,10.90
2023-11-08T11:11:45.566Z,10.90
2023-11-08T11:14:24.084Z,11.00
2023-11-08T11:16:58.874Z,11.10
2023-11-08T11:22:00.921Z,11.10
2023-11-08T11:24:43.740Z,11.10
2023-11-08T11:27:47.183Z,11.00
2023-11-08T11:30:28.683Z,11.10
2023-11-08T11:33:00.983Z,11.20
2023-11-08T11:35:57.718Z,11.60
2023-11-08T11:38:26.376Z,11.70
2023-11-08T11:41:27.330Z,12.20
2023-11-08T11:44:00.394Z,12.30
2023-11-08T11:46:31.067Z,12.20
2023-11-08T11:49:12.502Z,12.00
2023-11-08T11:51:41.341Z,11.70
2023-11-08T11:54:09.578Z,11.70
2023-11-08T11:59:10.290Z,11.60
2023-11-08T12:01:38.325Z,11.50
2023-11-08T12:04:07.031Z,11.50
2023-11-08T12:06:35.223Z,11.40
2023-11-08T12:33:59.556Z,11.40
2023-11-08T12:36:27.803Z,11.30
2023-11-08T12:39:06.532Z,11.30
2023-11-08T12:41:45.928Z,11.30
2023-11-08T12:44:16.932Z,11.30
2023-11-08T12:46:50.190Z,11.30
2023-11-08T12:49:21.075Z,11.30
2023-11-08T12:51:49.191Z,11.60
2023-11-08T12:54:18.433Z,11.70
2023-11-08T12:56:47.281Z,11.70
2023-11-08T12:59:17.350Z,12.00
2023-11-08T13:01:47.415Z,12.00
2023-11-08T13:04:17.704Z,11.80
2023-11-08T13:06:50.769Z,11.70
2023-11-08T13:14:19.276Z,11.40
2023-11-08T13:16:50.652Z,11.30
2023-11-08T13:19:18.918Z,11.30
2023-11-08T13:21:48.578Z,11.30
2023-11-08T13:24:16.942Z,11.50
2023-11-08T13:26:45.058Z,11.60
2023-11-08T13:29:13.056Z,11.60
2023-11-08T13:31:41.176Z,11.60
2023-11-08T13:34:09.423Z,11.50
2023-11-08T13:36:37.965Z,11.50
2023-11-08T13:39:08.757Z,11.40
2023-11-08T13:41:37.348Z,11.40
2023-11-08T13:44:05.952Z,11.40
2023-11-08T13:46:34.550Z,11.40
2023-11-08T13:49:02.705Z,11.60
2023-11-08T13:51:30.754Z,11.60
2023-11-08T13:56:36.617Z,11.50
2023-11-08T13:59:05.154Z,11.40
2023-11-08T14:01:35.686Z,11.40
2023-11-08T14:04:04.186Z,11.40
2023-11-08T14:06:32.342Z,11.60
2023-11-08T14:09:00.410Z,11.70
2023-11-08T14:11:28.422Z,12.00
2023-11-08T14:13:57.708Z,12.00
2023-11-08T14:16:25.710Z,12.50
2023-11-08T15:01:38.604Z,12.80
2023-11-08T15:04:08.957Z,11.20
2023-11-08T15:06:37.501Z,11.00
2023-11-08T15:09:52.009Z,10.90
2023-11-08T15:11:55.231Z,10.80
2023-11-08T15:16:54.125Z,10.60
2023-11-08T15:19:23.842Z,10.60
2023-11-08T15:21:53.470Z,10.60
2023-11-08T15:24:21.603Z,10.50
2023-11-08T15:26:51.040Z,10.50
2023-11-08T15:29:19.717Z,10.40
2023-11-08T15:31:47.635Z,10.40
2023-11-08T15:34:17.592Z,10.30
2023-11-08T15:36:47.891Z,10.20
2023-11-08T15:39:17.193Z,10.20
2023-11-08T15:41:47.181Z,10.10
2023-11-08T15:44:15.264Z,10.10
2023-11-08T15:46:43.200Z,10.00
2023-11-08T15:49:14.933Z,10.00
2023-11-08T15:51:44.727Z,9.90
2023-11-08T15:54:13.205Z,9.90
2023-11-08T15:56:41.253Z,9.80
2023-11-08T15:59:11.069Z,9.80
2023-11-08T16:01:44.474Z,9.70
2023-11-08T16:04:12.590Z,9.60
2023-11-08T16:06:40.622Z,9.60
2023-11-08T16:09:10.995Z,9.50
2023-11-08T16:11:40.589Z,9.50
2023-11-08T16:14:09.012Z,9.60
2023-11-08T16:16:42.748Z,9.50
2023-11-08T16:19:11.276Z,9.40
2023-11-08T16:21:40.135Z,9.40
2023-11-08T16:24:10.452Z,9.40
2023-11-08T16:26:39.850Z,9.40
2023-11-08T16:29:12.747Z,9.30
2023-11-08T16:32:33.161Z,9.20
2023-11-08T16:34:47.929Z,9.20
2023-11-08T16:37:16.796Z,9.20
2023-11-08T16:39:46.521Z,9.20
2023-11-08T16:42:16.873Z,9.10
2023-11-08T16:44:46.672Z,9.10
2023-11-08T16:47:14.675Z,9.10
2023-11-08T16:49:42.687Z,9.00
2023-11-08T16:54:39.075Z,8.90
2023-11-08T16:57:09.479Z,9.00
2023-11-08T16:59:38.114Z,8.90
2023-11-08T17:02:06.542Z,8.90
2023-11-08T17:04:37.355Z,8.80
2023-11-08T17:07:05.762Z,8.80
2023-11-08T17:09:36.561Z,8.70
2023-11-08T17:12:06.957Z,8.70
2023-11-08T17:17:04.968Z,8.70
2023-11-08T17:19:33.062Z,8.70
2023-11-08T17:22:01.348Z,8.60
2023-11-08T17:24:29.346Z,8.60
2023-11-08T17:26:57.345Z,8.60
2023-11-08T17:31:55.084Z,8.60
2023-11-08T17:34:23.697Z,8.60
2023-11-08T17:36:53.041Z,8.50
2023-11-08T17:39:21.052Z,8.50
2023-11-08T17:41:49.560Z,8.50
2023-11-08T17:44:18.318Z,8.50
2023-11-08T17:46:46.421Z,8.40
2023-11-08T17:49:15.932Z,8.40
2023-11-08T17:51:44.190Z,8.40
2023-11-08T17:54:13.633Z,8.30
2023-11-08T17:56:48.596Z,8.30
2023-11-08T17:59:16.739Z,8.30
2023-11-08T18:01:45.520Z,8.30
2023-11-08T18:04:15.184Z,8.20
2023-11-08T18:06:43.881Z,8.20
2023-11-08T18:09:13.884Z,8.20
2023-11-08T18:11:42.219Z,8.20
2023-11-08T18:14:11.212Z,8.20
2023-11-08T18:16:40.804Z,8.20
2023-11-08T18:19:09.484Z,8.20
2023-11-08T18:21:39.275Z,8.20
2023-11-08T18:24:08.506Z,8.20
2023-11-08T18:26:37.503Z,8.20
2023-11-08T18:29:05.742Z,8.20
2023-11-08T18:31:34.318Z,8.30
2023-11-08T18:34:02.950Z,8.30
2023-11-08T18:36:31.302Z,8.30
2023-11-08T18:39:00.909Z,8.30
2023-11-08T18:41:29.188Z,8.40
2023-11-08T18:43:58.712Z,8.40
2023-11-08T18:46:27.271Z,8.40
2023-11-08T18:48:56.218Z,8.40
2023-11-08T18:51:24.771Z,8.40
2023-11-08T18:53:53.085Z,8.40
2023-11-08T18:56:23.014Z,8.40
2023-11-08T18:58:52.307Z,8.40
2023-11-08T19:01:20.946Z,8.40
2023-11-08T19:03:49.637Z,8.40
2023-11-08T19:06:18.121Z,8.40
2023-11-08T19:08:47.896Z,8.40
2023-11-08T19:11:16.607Z,8.40
2023-11-08T19:13:46.376Z,8.40
2023-11-08T19:16:15.026Z,8.40
2023-11-08T19:18:43.851Z,8.40
2023-11-08T19:21:12.445Z,8.40
2023-11-08T19:23:41.309Z,8.50
2023-11-08T19:26:11.570Z,8.50
2023-11-08T19:28:40.233Z,8.40
2023-11-08T19:31:11.329Z,8.50
2023-11-08T19:33:39.974Z,8.40
2023-11-08T19:36:10.764Z,8.40
2023-11-08T19:38:39.823Z,8.40
2023-11-08T19:41:10.753Z,8.40
2023-11-08T19:43:40.137Z,8.40
2023-11-08T19:46:11.756Z,8.30
2023-11-08T19:48:42.058Z,8.40
2023-11-08T19:51:10.973Z,8.30
2023-11-08T19:53:39.615Z,8.30
2023-11-08T19:56:10.095Z,8.30
2023-11-08T19:58:38.987Z,8.30
2023-11-08T20:01:07.953Z,8.30
2023-11-08T20:03:44.708Z,8.30
2023-11-08T20:06:13.817Z,8.30
2023-11-08T20:08:42.685Z,8.30
2023-11-08T20:11:13.819Z,8.30
2023-11-08T20:13:42.525Z,8.30
2023-11-08T20:16:13.588Z,8.30
2023-11-08T20:18:44.951Z,8.30
2023-11-08T20:21:15.069Z,8.30
2023-11-08T20:23:43.771Z,8.30
2023-11-08T20:26:12.960Z,8.30
2023-11-08T20:28:41.039Z,8.40
2023-11-08T20:31:09.372Z,8.40
2023-11-08T20:33:37.319Z,8.40
2023-11-08T20:36:07.973Z,8.40
2023-11-08T20:38:39.260Z,8.40
2023-11-08T20:43:38.440Z,8.40
2023-11-08T20:46:06.609Z,8.40
2023-11-08T20:48:34.973Z,8.40
2023-11-08T20:51:03.014Z,8.40
2023-11-08T20:53:33.217Z,8.40
2023-11-08T20:56:01.147Z,8.40
2023-11-08T20:58:29.257Z,8.40
2023-11-08T21:00:59.994Z,8.40
2023-11-08T21:03:29.611Z,8.40
2023-11-08T21:05:58.428Z,8.40
2023-11-08T21:08:26.526Z,8.40
2023-11-08T21:10:56.163Z,8.40
2023-11-08T21:13:24.515Z,8.40
2023-11-08T21:15:52.509Z,8.40
2023-11-08T21:18:22.719Z,8.40
2023-11-08T21:20:52.285Z,8.40
2023-11-08T21:23:20.201Z,8.40
2023-11-08T21:25:48.821Z,8.40
2023-11-08T21:28:18.836Z,8.40
2023-11-08T21:30:46.909Z,8.40
2023-11-08T21:33:14.853Z,8.40
2023-11-08T21:35:42.981Z,8.40
2023-11-08T21:38:10.957Z,8.40
2023-11-08T21:40:38.948Z,8.40
2023-11-08T21:43:07.043Z,8.40
2023-11-08T21:45:36.501Z,8.40
2023-11-08T21:48:05.698Z,8.40
2023-11-08T21:50:33.742Z,8.40
2023-11-08T21:53:02.079Z,8.40
2023-11-08T21:55:30.148Z,8.40
2023-11-08T21:57:58.158Z,8.40
2023-11-08T22:00:26.045Z,8.40
2023-11-08T22:02:56.025Z,8.40
2023-11-08T22:05:24.574Z,8.40
2023-11-08T22:07:52.572Z,8.40
2023-11-08T22:10:20.630Z,8.40
2023-11-08T22:12:48.719Z,8.40
2023-11-08T22:15:17.040Z,8.40
2023-11-08T22:17:45.041Z,8.40
2023-11-08T22:20:15.048Z,8.30
2023-11-08T22:22:43.311Z,8.40
2023-11-08T22:25:11.464Z,8.40
2023-11-08T22:27:39.892Z,8.40
2023-11-08T22:30:09.846Z,8.40
2023-11-08T22:32:38.061Z,8.40
2023-11-08T22:35:06.896Z,8.40
2023-11-08T22:37:36.158Z,8.30
2023-11-08T22:40:04.615Z,8.30
2023-11-08T22:42:32.613Z,8.30
2023-11-08T22:45:00.573Z,8.30
2023-11-08T22:47:28.574Z,8.30
2023-11-08T22:49:56.600Z,8.30
2023-11-08T22:52:24.608Z,8.30
2023-11-08T22:54:54.176Z,8.30
2023-11-08T22:57:23.382Z,8.30
2023-11-08T22:59:53.047Z,8.20
2023-11-08T23:02:21.017Z,8.20
2023-11-08T23:04:49.211Z,8.30
2023-11-08T23:07:17.336Z,8.20
2023-11-08T23:09:45.818Z,8.30
2023-11-08T23:12:15.190Z,8.30
2023-11-08T23:14:45.050Z,8.30
2023-11-08T23:17:12.970Z,8.20
2023-11-08T23:19:41.016Z,8.30
2023-11-08T23:22:09.028Z,8.30
2023-11-08T23:24:37.628Z,8.30
2023-11-08T23:27:06.064Z,8.30
2023-11-08T23:29:36.578Z,8.30
2023-11-08T23:32:05.077Z,8.30
2023-11-08T23:34:33.177Z,8.30
2023-11-08T23:37:01.433Z,8.30
2023-11-08T23:39:29.759Z,8.30
2023-11-08T23:41:57.815Z,8.20
2023-11-08T23:44:25.716Z,8.20
2023-11-08T23:46:57.640Z,8.20
2023-11-08T23:49:26.071Z,8.20
2023-11-08T23:51:54.252Z,8.20
2023-11-08T23:54:22.840Z,8.20
2023-11-08T23:56:50.772Z,8.30
2023-11-08T23:59:18.725Z,8.30
